This is the latest recevied weather packets stored in our database for station/object KM4KMO-14. If no packets are shown the sender has not sent any weather packets the latest 10 day(s).
| Time | Temp. | Humidity | Pressure | Rain* | Wind** | Luminosity | Snow |
|---|---|---|---|---|---|---|---|
| 1777785146 | 9.44° C | 80% | 1015.8 hPa | 0 mm | - | - | - |
| 1777781546 | 10.56° C | 75% | 1015.3 hPa | 0 mm | - | - | - |
| 1777780646 | 10.56° C | 74% | 1015.3 hPa | 0 mm | - | - | - |
| 1777778846 | 11.67° C | 71% | 1015.2 hPa | 0 mm | - | - | - |
| 1777777046 | 12.22° C | 69% | 1015 hPa | 0 mm | - | - | - |
| 1777774347 | 13.33° C | 62% | 1014.5 hPa | 0 mm | - | - | - |
| 1777773447 | 13.89° C | 60% | 1014.2 hPa | 0 mm | - | - | - |
| 1777772546 | 13.89° C | 58% | 1013.9 hPa | 0 mm | - | - | - |
| 1777770746 | 14.44° C | 55% | 1013.7 hPa | 0 mm | - | - | - |
| 1777767147 | 16.11° C | 46% | 1012.4 hPa | 0 mm | - | - | - |
| 1777765347 | 16.67° C | 45% | 1011.9 hPa | 0 mm | - | - | - |
| 1777760847 | 19.44° C | 39% | 1011.7 hPa | 0 mm | - | - | - |
| 1777758147 | 18.89° C | 39% | 1011.5 hPa | 0 mm | - | - | - |
| 1777757247 | 18.89° C | 42% | 1011.4 hPa | 0 mm | - | - | - |
| 1777756347 | 18.33° C | 39% | 1011.3 hPa | 0 mm | - | - | - |
| 1777755447 | 18.89° C | 39% | 1011.3 hPa | 0 mm | - | - | - |
| 1777754547 | 20° C | 39% | 1011.3 hPa | 0 mm | - | - | - |
| 1777753647 | 19.44° C | 41% | 1011.4 hPa | 0 mm | - | - | - |
| 1777751848 | 18.89° C | 37% | 1011.5 hPa | 0 mm | - | - | - |
| 1777749147 | 18.89° C | 42% | 1011.7 hPa | 0 mm | - | - | - |
| 1777748248 | 19.44° C | 44% | 1011.8 hPa | 0 mm | - | - | - |
| 1777747348 | 18.89° C | 38% | 1012.1 hPa | 0 mm | - | - | - |
| 1777745549 | 18.33° C | 45% | 1012 hPa | 0 mm | - | - | - |
| 1777743748 | 18.89° C | 43% | 1012.3 hPa | 0 mm | - | - | - |
| 1777740148 | 17.22° C | 43% | 1012.9 hPa | 0 mm | - | - | - |
* Rain latest hour (hover to see other rain measurements)
** Current wind speed in m/s (hover to see current wind gust speed)